createdAt,value
2018-10-03T00:00:29.626Z,996.89
2018-10-03T00:01:29.623Z,996.88
2018-10-03T00:02:29.619Z,996.87
2018-10-03T00:03:29.625Z,996.82
2018-10-03T00:04:29.611Z,996.76
2018-10-03T00:05:29.605Z,996.72
2018-10-03T00:06:29.603Z,996.77
2018-10-03T00:07:29.596Z,996.8
2018-10-03T00:08:29.595Z,996.76
2018-10-03T00:09:29.591Z,996.76
2018-10-03T00:10:29.584Z,996.74
2018-10-03T00:11:29.581Z,996.76
2018-10-03T00:12:29.574Z,996.71
2018-10-03T00:13:29.572Z,996.78
2018-10-03T00:14:29.582Z,996.74
2018-10-03T00:15:29.565Z,996.78
2018-10-03T00:16:29.561Z,996.7
2018-10-03T00:17:29.571Z,996.74
2018-10-03T00:18:29.551Z,996.77
2018-10-03T00:19:29.547Z,996.69
2018-10-03T00:20:29.553Z,996.71
2018-10-03T00:21:29.541Z,996.68
2018-10-03T00:22:29.543Z,996.71
2018-10-03T00:23:29.580Z,996.7
2018-10-03T00:24:29.529Z,996.73
2018-10-03T00:25:29.523Z,996.77
2018-10-03T00:26:29.519Z,996.79
2018-10-03T00:27:29.542Z,996.87
2018-10-03T00:28:29.518Z,996.82
2018-10-03T00:29:29.507Z,996.84
2018-10-03T00:30:29.503Z,996.86
2018-10-03T00:31:29.500Z,996.87
2018-10-03T00:32:29.498Z,996.79
2018-10-03T00:33:29.488Z,996.85
2018-10-03T00:34:29.485Z,996.88
2018-10-03T00:35:29.483Z,996.77
2018-10-03T00:36:29.475Z,996.91
2018-10-03T00:37:29.474Z,996.89
2018-10-03T00:38:29.470Z,996.87
2018-10-03T00:39:29.466Z,996.98
2018-10-03T00:40:29.466Z,996.98
2018-10-03T00:41:29.456Z,996.98
2018-10-03T00:42:29.452Z,997.04
2018-10-03T00:43:29.448Z,997
2018-10-03T00:44:29.445Z,997.01
2018-10-03T00:45:29.442Z,997.01
2018-10-03T00:46:29.438Z,997.04
2018-10-03T00:47:29.429Z,997.07
2018-10-03T00:48:29.427Z,997.07
2018-10-03T00:49:29.425Z,997.08
2018-10-03T00:50:29.424Z,997.1
2018-10-03T00:51:29.413Z,997.08
2018-10-03T00:52:29.411Z,997.03
2018-10-03T00:53:29.407Z,997.01
2018-10-03T00:54:29.402Z,996.99
2018-10-03T00:55:29.399Z,997.04
2018-10-03T00:56:29.395Z,996.95
2018-10-03T00:57:29.393Z,996.98
2018-10-03T00:58:29.389Z,996.94
2018-10-03T00:59:29.382Z,997.01
2018-10-03T01:00:29.379Z,996.98
2018-10-03T01:01:29.380Z,996.93
2018-10-03T01:02:29.375Z,996.93
2018-10-03T01:03:29.367Z,996.89
2018-10-03T01:04:29.368Z,996.88
2018-10-03T01:05:29.361Z,996.88
2018-10-03T01:06:29.375Z,996.93
2018-10-03T01:07:29.356Z,996.89
2018-10-03T01:08:29.348Z,996.84
2018-10-03T01:09:29.345Z,996.85
2018-10-03T01:10:29.344Z,996.85
2018-10-03T01:11:29.337Z,996.84
2018-10-03T01:12:29.335Z,996.89
2018-10-03T01:13:29.332Z,996.94
2018-10-03T01:14:29.333Z,997.01
2018-10-03T01:15:29.330Z,997.01
2018-10-03T01:16:29.317Z,996.97
2018-10-03T01:17:29.317Z,997.04
2018-10-03T01:18:29.322Z,997
2018-10-03T01:19:29.319Z,997.04
2018-10-03T01:20:29.303Z,997.11
2018-10-03T01:21:29.302Z,997.12
2018-10-03T01:22:29.297Z,997.09
2018-10-03T01:23:29.595Z,997.07
2018-10-03T01:24:29.290Z,997.06
2018-10-03T01:25:29.285Z,997.07
2018-10-03T01:26:29.280Z,997.09
2018-10-03T01:27:29.281Z,997.12
2018-10-03T01:28:29.292Z,997.07
2018-10-03T01:29:29.298Z,997.08
2018-10-03T01:30:29.279Z,997.01
2018-10-03T01:31:29.265Z,997.06
2018-10-03T01:32:29.267Z,997.04
2018-10-03T01:33:30.059Z,996.94
2018-10-03T01:34:29.255Z,996.99
2018-10-03T01:35:29.260Z,997.03
2018-10-03T01:36:29.248Z,996.98
2018-10-03T01:37:29.244Z,997.03
2018-10-03T01:38:29.360Z,997.01
2018-10-03T01:39:29.235Z,996.93
2018-10-03T01:40:29.246Z,996.95
2018-10-03T01:41:29.229Z,996.94
2018-10-03T01:42:29.226Z,996.97
2018-10-03T01:43:29.222Z,996.87
2018-10-03T01:44:29.220Z,996.89
2018-10-03T01:45:29.216Z,996.84
2018-10-03T01:46:29.211Z,996.84
2018-10-03T01:47:29.208Z,996.82
2018-10-03T01:48:29.205Z,996.82
2018-10-03T01:49:29.200Z,996.84
2018-10-03T01:50:29.201Z,996.8
2018-10-03T01:51:29.193Z,996.85
2018-10-03T01:52:29.190Z,996.75
2018-10-03T01:53:29.187Z,996.75
2018-10-03T01:54:29.188Z,996.79
2018-10-03T01:55:29.179Z,996.89
2018-10-03T01:56:29.178Z,996.88
2018-10-03T01:57:29.172Z,996.89
2018-10-03T01:58:29.171Z,996.92
2018-10-03T01:59:29.167Z,996.92
2018-10-03T02:00:29.162Z,996.96
2018-10-03T02:01:29.166Z,996.99
2018-10-03T02:02:29.162Z,996.97
2018-10-03T02:03:29.152Z,996.98
2018-10-03T02:04:29.148Z,996.94
2018-10-03T02:05:29.146Z,996.94
2018-10-03T02:06:29.143Z,996.97
2018-10-03T02:07:29.137Z,996.95
2018-10-03T02:08:29.135Z,996.89
2018-10-03T02:09:29.133Z,996.87
2018-10-03T02:10:29.129Z,996.9
2018-10-03T02:11:29.155Z,996.87
2018-10-03T02:12:29.121Z,996.89
2018-10-03T02:13:29.119Z,996.91
2018-10-03T02:14:29.114Z,996.99
2018-10-03T02:15:29.123Z,996.99
2018-10-03T02:16:29.106Z,996.98
2018-10-03T02:17:29.104Z,997.02
2018-10-03T02:18:29.100Z,996.99
2018-10-03T02:19:29.097Z,996.95
2018-10-03T02:20:29.103Z,996.98
2018-10-03T02:21:29.090Z,996.96
2018-10-03T02:22:29.088Z,996.98
2018-10-03T02:23:29.084Z,996.93
2018-10-03T02:24:29.080Z,997.02
2018-10-03T02:25:29.076Z,997.01
2018-10-03T02:26:29.072Z,997.04
2018-10-03T02:27:29.069Z,996.99
2018-10-03T02:28:29.071Z,997.01
2018-10-03T02:29:29.061Z,996.98
2018-10-03T02:30:29.058Z,997.06
2018-10-03T02:31:29.058Z,997.07
2018-10-03T02:32:29.056Z,997.05
2018-10-03T02:33:29.048Z,997.04
2018-10-03T02:34:29.047Z,997
2018-10-03T02:35:29.053Z,997.02
2018-10-03T02:36:29.055Z,996.99
2018-10-03T02:37:29.046Z,996.96
2018-10-03T02:38:29.048Z,996.95
2018-10-03T02:39:29.032Z,997.04
2018-10-03T02:40:29.033Z,997.02
2018-10-03T02:41:29.023Z,996.98
2018-10-03T02:42:29.021Z,996.94
2018-10-03T02:43:29.017Z,996.93
2018-10-03T02:44:29.012Z,996.9
2018-10-03T02:45:29.009Z,996.88
2018-10-03T02:46:29.007Z,996.91
2018-10-03T02:47:29.006Z,996.85
2018-10-03T02:48:29.001Z,996.91
2018-10-03T02:49:29.006Z,996.98
2018-10-03T02:50:29.001Z,997
2018-10-03T02:51:28.988Z,996.96
2018-10-03T02:52:29.000Z,997.03
2018-10-03T02:53:28.986Z,997.04
2018-10-03T02:54:28.993Z,997.07
2018-10-03T02:55:28.988Z,997.08
2018-10-03T02:56:28.974Z,997.07
2018-10-03T02:57:28.973Z,997.05
2018-10-03T02:58:28.972Z,997.09
2018-10-03T02:59:28.964Z,997.09
2018-10-03T03:00:28.961Z,996.99
2018-10-03T03:01:29.034Z,997.04
2018-10-03T03:02:28.955Z,996.99
2018-10-03T03:03:28.950Z,997.03
2018-10-03T03:04:28.946Z,997.02
2018-10-03T03:05:28.944Z,997.02
2018-10-03T03:06:28.941Z,996.98
2018-10-03T03:07:28.949Z,996.99
2018-10-03T03:08:28.994Z,997.01
2018-10-03T03:09:28.935Z,997.02
2018-10-03T03:10:28.933Z,997
2018-10-03T03:11:28.923Z,996.97
2018-10-03T03:12:28.922Z,996.95
2018-10-03T03:13:28.916Z,996.96
2018-10-03T03:14:28.910Z,996.91
2018-10-03T03:15:28.909Z,996.86
2018-10-03T03:16:28.912Z,996.88
2018-10-03T03:17:28.903Z,996.89
2018-10-03T03:18:28.901Z,996.83
2018-10-03T03:19:29.157Z,996.84
2018-10-03T03:20:28.896Z,996.81
2018-10-03T03:21:28.904Z,996.81
2018-10-03T03:22:28.896Z,996.96
2018-10-03T03:23:28.913Z,997.02
2018-10-03T03:24:28.878Z,997.05
2018-10-03T03:25:28.878Z,997.07
2018-10-03T03:26:28.873Z,997.07
2018-10-03T03:27:28.868Z,997.1
2018-10-03T03:28:28.870Z,997.09
2018-10-03T03:29:28.924Z,997.1
2018-10-03T03:30:28.863Z,997.08
2018-10-03T03:31:28.855Z,997.09
2018-10-03T03:32:28.850Z,997.04
2018-10-03T03:33:28.846Z,997.13
2018-10-03T03:34:28.841Z,997.05
2018-10-03T03:35:28.840Z,997.05
2018-10-03T03:36:28.837Z,997.06
2018-10-03T03:37:28.835Z,997.07
2018-10-03T03:38:28.830Z,997.04
2018-10-03T03:39:28.840Z,997.1
2018-10-03T03:40:28.827Z,997.05
2018-10-03T03:41:28.826Z,997.03
2018-10-03T03:42:28.815Z,997.03
2018-10-03T03:43:28.821Z,997
2018-10-03T03:44:28.812Z,996.95
2018-10-03T03:45:28.806Z,996.98
2018-10-03T03:46:28.798Z,996.96
2018-10-03T03:47:28.795Z,996.98
2018-10-03T03:48:28.789Z,996.9
2018-10-03T03:49:28.788Z,997
2018-10-03T03:50:28.799Z,996.95
2018-10-03T03:51:28.777Z,997.01
2018-10-03T03:52:28.773Z,997
2018-10-03T03:53:28.770Z,997.01
2018-10-03T03:54:28.765Z,997.04
2018-10-03T03:55:28.765Z,997.05
2018-10-03T03:56:28.762Z,997.1
2018-10-03T03:57:28.755Z,997.03
2018-10-03T03:58:28.752Z,997.12
2018-10-03T03:59:28.752Z,997.08
2018-10-03T04:00:28.744Z,997.11
2018-10-03T04:01:28.742Z,997
2018-10-03T04:02:28.752Z,997.07
2018-10-03T04:03:28.736Z,997.03
2018-10-03T04:04:28.732Z,996.95
2018-10-03T04:05:28.724Z,997.06
2018-10-03T04:06:28.720Z,997.07
2018-10-03T04:07:28.716Z,997.01
2018-10-03T04:08:28.714Z,997.04
2018-10-03T04:09:28.716Z,997.03
2018-10-03T04:10:28.707Z,997.08
2018-10-03T04:11:28.702Z,997.11
2018-10-03T04:12:28.697Z,997.06
2018-10-03T04:13:28.695Z,997.13
2018-10-03T04:14:28.690Z,997.14
2018-10-03T04:15:28.686Z,997.13
2018-10-03T04:16:28.688Z,997.15
2018-10-03T04:17:28.691Z,997.11
2018-10-03T04:18:28.674Z,997.05
2018-10-03T04:19:28.682Z,997.03
2018-10-03T04:20:28.671Z,997.12
2018-10-03T04:21:28.671Z,997.21
2018-10-03T04:22:28.665Z,997.17
2018-10-03T04:23:28.655Z,997.24
2018-10-03T04:24:28.651Z,997.24
2018-10-03T04:25:28.649Z,997.36
2018-10-03T04:26:28.659Z,997.37
2018-10-03T04:27:28.640Z,997.3
2018-10-03T04:28:28.660Z,997.32
2018-10-03T04:29:28.634Z,997.29
2018-10-03T04:30:28.639Z,997.24
2018-10-03T04:31:28.629Z,997.26
2018-10-03T04:32:28.627Z,997.27
2018-10-03T04:33:28.626Z,997.26
2018-10-03T04:34:28.621Z,997.28
2018-10-03T04:35:28.703Z,997.27
2018-10-03T04:36:28.608Z,997.26
2018-10-03T04:37:28.604Z,997.27
2018-10-03T04:38:28.611Z,997.28
2018-10-03T04:39:28.598Z,997.23
2018-10-03T04:40:28.593Z,997.22
2018-10-03T04:41:28.591Z,997.29
2018-10-03T04:42:28.590Z,997.33
2018-10-03T04:43:28.584Z,997.32
2018-10-03T04:44:28.596Z,997.43
2018-10-03T04:45:28.574Z,997.37
2018-10-03T04:46:28.572Z,997.34
2018-10-03T04:47:28.569Z,997.37
2018-10-03T04:48:28.564Z,997.36
2018-10-03T04:49:28.559Z,997.33
2018-10-03T04:50:28.574Z,997.3
2018-10-03T04:51:28.553Z,997.31
2018-10-03T04:52:28.549Z,997.32
2018-10-03T04:53:28.546Z,997.36
2018-10-03T04:54:28.543Z,997.32
2018-10-03T04:55:28.540Z,997.28
2018-10-03T04:56:28.536Z,997.22
2018-10-03T04:57:28.534Z,997.18
2018-10-03T04:58:28.527Z,997.15
2018-10-03T04:59:28.524Z,997.2
2018-10-03T05:00:28.521Z,997.24
2018-10-03T05:01:28.518Z,997.24
2018-10-03T05:02:28.517Z,997.19
2018-10-03T05:03:28.529Z,997.24
2018-10-03T05:04:28.507Z,997.17
2018-10-03T05:05:28.504Z,997.13
2018-10-03T05:06:28.504Z,997.16
2018-10-03T05:07:28.499Z,997.13
2018-10-03T05:08:28.494Z,997.15
2018-10-03T05:09:28.495Z,997.19
2018-10-03T05:10:28.491Z,997.21
2018-10-03T05:11:28.528Z,997.19
2018-10-03T05:12:28.479Z,997.18
2018-10-03T05:13:28.476Z,997.22
2018-10-03T05:14:28.486Z,997.25
2018-10-03T05:15:28.473Z,997.26
2018-10-03T05:16:28.465Z,997.26
2018-10-03T05:17:28.461Z,997.24
2018-10-03T05:18:28.457Z,997.3
2018-10-03T05:19:28.455Z,997.26
2018-10-03T05:20:28.452Z,997.32
2018-10-03T05:21:28.447Z,997.34
2018-10-03T05:22:28.444Z,997.41
2018-10-03T05:23:28.443Z,997.46
2018-10-03T05:24:28.448Z,997.46
2018-10-03T05:25:28.433Z,997.5
2018-10-03T05:26:28.431Z,997.46
2018-10-03T05:27:28.435Z,997.5
2018-10-03T05:28:28.425Z,997.49
2018-10-03T05:29:28.424Z,997.49
2018-10-03T05:30:28.417Z,997.5
2018-10-03T05:31:28.415Z,997.54
2018-10-03T05:32:28.411Z,997.58
2018-10-03T05:33:28.407Z,997.61
2018-10-03T05:34:28.402Z,997.55
2018-10-03T05:35:28.404Z,997.59
2018-10-03T05:36:28.397Z,997.67
2018-10-03T05:37:28.392Z,997.68
2018-10-03T05:38:28.393Z,997.61
2018-10-03T05:39:28.426Z,997.69
2018-10-03T05:40:28.381Z,997.7
2018-10-03T05:41:28.382Z,997.8
2018-10-03T05:42:28.376Z,997.83
2018-10-03T05:43:28.414Z,997.82
2018-10-03T05:44:28.369Z,997.9
2018-10-03T05:45:28.379Z,997.91
2018-10-03T05:46:28.362Z,997.95
2018-10-03T05:47:28.357Z,997.93
2018-10-03T05:48:28.375Z,998.01
2018-10-03T05:49:28.351Z,998.03
2018-10-03T05:50:28.346Z,997.99
2018-10-03T05:51:28.347Z,997.99
2018-10-03T05:52:28.340Z,997.98
2018-10-03T05:53:28.340Z,998.06
2018-10-03T05:54:28.387Z,997.97
2018-10-03T05:55:29.135Z,997.99
2018-10-03T05:56:28.330Z,998.04
2018-10-03T05:57:28.324Z,998.02
2018-10-03T05:58:28.321Z,998.03
2018-10-03T05:59:28.316Z,998.03
2018-10-03T06:00:28.314Z,998.02
2018-10-03T06:01:28.308Z,998.06
2018-10-03T06:02:28.318Z,998.13
2018-10-03T06:03:28.304Z,998.11
2018-10-03T06:04:28.343Z,998.11
2018-10-03T06:05:28.297Z,998.19
2018-10-03T06:06:28.305Z,998.15
2018-10-03T06:07:28.396Z,998.15
2018-10-03T06:08:28.327Z,998.13
2018-10-03T06:09:28.383Z,998.22
2018-10-03T06:10:28.283Z,998.16
2018-10-03T06:11:28.280Z,998.16
2018-10-03T06:12:28.276Z,998.21
2018-10-03T06:13:28.270Z,998.19
2018-10-03T06:14:28.269Z,998.22
2018-10-03T06:15:28.266Z,998.21
2018-10-03T06:16:28.263Z,998.21
2018-10-03T06:17:28.258Z,998.27
2018-10-03T06:18:28.280Z,998.24
2018-10-03T06:19:28.255Z,998.22
2018-10-03T06:20:28.250Z,998.24
2018-10-03T06:21:28.248Z,998.2
2018-10-03T06:22:28.246Z,998.21
2018-10-03T06:23:28.239Z,998.26
2018-10-03T06:24:28.238Z,998.3
2018-10-03T06:25:28.240Z,998.32
2018-10-03T06:26:28.237Z,998.3
2018-10-03T06:27:28.239Z,998.28
2018-10-03T06:28:28.238Z,998.34
2018-10-03T06:29:28.234Z,998.35
2018-10-03T06:30:28.225Z,998.38
2018-10-03T06:31:28.217Z,998.36
2018-10-03T06:32:28.214Z,998.36
2018-10-03T06:33:28.284Z,998.36
2018-10-03T06:34:28.203Z,998.43
2018-10-03T06:35:28.201Z,998.44
2018-10-03T06:36:28.209Z,998.49
2018-10-03T06:37:28.197Z,998.5
2018-10-03T06:38:28.194Z,998.52
2018-10-03T06:39:28.223Z,998.53
2018-10-03T06:40:28.193Z,998.58
2018-10-03T06:41:28.215Z,998.62
2018-10-03T06:42:28.184Z,998.61
2018-10-03T06:43:28.186Z,998.64
2018-10-03T06:44:28.176Z,998.6
2018-10-03T06:45:28.189Z,998.62
2018-10-03T06:46:28.170Z,998.67
2018-10-03T06:47:28.168Z,998.69
2018-10-03T06:48:28.180Z,998.75
2018-10-03T06:49:28.172Z,998.74
2018-10-03T06:50:28.168Z,998.76
2018-10-03T06:51:28.174Z,998.72
2018-10-03T06:52:28.169Z,998.71
2018-10-03T06:53:28.154Z,998.73
2018-10-03T06:54:28.148Z,998.75
2018-10-03T06:55:28.144Z,998.76
2018-10-03T06:56:28.141Z,998.76
2018-10-03T06:57:28.149Z,998.83
2018-10-03T06:58:28.137Z,998.82
2018-10-03T06:59:28.136Z,998.77
2018-10-03T07:00:28.128Z,998.82
2018-10-03T07:01:28.125Z,998.86
2018-10-03T07:02:28.136Z,998.9
2018-10-03T07:03:28.128Z,998.88
2018-10-03T07:04:28.123Z,998.88
2018-10-03T07:05:28.131Z,998.92
2018-10-03T07:06:28.114Z,998.94
2018-10-03T07:07:28.116Z,998.9
2018-10-03T07:08:28.138Z,998.92
2018-10-03T07:09:28.133Z,998.91
2018-10-03T07:10:28.110Z,998.9
2018-10-03T07:11:28.097Z,998.93
2018-10-03T07:12:28.111Z,998.95
2018-10-03T07:13:28.114Z,999.02
2018-10-03T07:14:28.102Z,998.98
2018-10-03T07:15:28.089Z,999.05
2018-10-03T07:16:28.102Z,999.04
2018-10-03T07:17:28.083Z,998.99
2018-10-03T07:18:28.110Z,999.06
2018-10-03T07:19:28.078Z,999.04
2018-10-03T07:20:28.098Z,999.03
2018-10-03T07:21:28.079Z,999.03
2018-10-03T07:22:28.081Z,999.06
2018-10-03T07:23:28.072Z,999.11
2018-10-03T07:24:28.077Z,999.08
2018-10-03T07:25:28.079Z,999.17
2018-10-03T07:26:28.058Z,999.18
2018-10-03T07:27:28.061Z,999.18
2018-10-03T07:28:28.055Z,999.2
2018-10-03T07:29:28.065Z,999.18
2018-10-03T07:30:28.052Z,999.23
2018-10-03T07:31:28.052Z,999.24
2018-10-03T07:32:28.064Z,999.22
2018-10-03T07:33:28.042Z,999.25
2018-10-03T07:34:28.049Z,999.32
2018-10-03T07:35:28.043Z,999.33
2018-10-03T07:36:28.047Z,999.38
2018-10-03T07:37:28.033Z,999.38
2018-10-03T07:38:28.033Z,999.4
2018-10-03T07:39:28.030Z,999.37
2018-10-03T07:40:28.029Z,999.44
2018-10-03T07:41:28.018Z,999.46
2018-10-03T07:42:28.038Z,999.5
2018-10-03T07:43:28.025Z,999.47
2018-10-03T07:44:28.014Z,999.48
2018-10-03T07:45:28.009Z,999.51
2018-10-03T07:46:28.006Z,999.47
2018-10-03T07:47:28.019Z,999.5
2018-10-03T07:48:28.011Z,999.46
2018-10-03T07:49:28.013Z,999.46
2018-10-03T07:50:28.018Z,999.52
2018-10-03T07:51:27.992Z,999.45
2018-10-03T07:52:27.994Z,999.46
2018-10-03T07:53:28.029Z,999.5
2018-10-03T07:54:27.998Z,999.49
2018-10-03T07:55:27.984Z,999.49
2018-10-03T07:56:27.981Z,999.47
2018-10-03T07:57:27.997Z,999.42
2018-10-03T07:58:27.970Z,999.41
2018-10-03T07:59:27.976Z,999.4
2018-10-03T08:00:27.973Z,999.37
2018-10-03T08:01:27.972Z,999.36
2018-10-03T08:02:27.962Z,999.35
2018-10-03T08:03:27.957Z,999.3
2018-10-03T08:04:27.956Z,999.31
2018-10-03T08:05:27.961Z,999.29
2018-10-03T08:06:27.952Z,999.29
2018-10-03T08:07:27.958Z,999.22
2018-10-03T08:08:27.948Z,999.26
2018-10-03T08:09:27.939Z,999.23
2018-10-03T08:10:27.946Z,999.17
2018-10-03T08:11:27.936Z,999.19
2018-10-03T08:12:27.934Z,999.16
2018-10-03T08:13:27.934Z,999.17
2018-10-03T08:14:27.928Z,999.14
2018-10-03T08:15:27.925Z,999.17
2018-10-03T08:16:27.927Z,999.15
2018-10-03T08:17:28.036Z,999.12
2018-10-03T08:18:27.938Z,999.15
2018-10-03T08:19:27.921Z,999.18
2018-10-03T08:20:27.917Z,999.19
2018-10-03T08:21:27.919Z,999.21
2018-10-03T08:22:27.923Z,999.2
2018-10-03T08:23:27.919Z,999.2
2018-10-03T08:24:27.922Z,999.24
2018-10-03T08:25:27.903Z,999.18
2018-10-03T08:26:27.901Z,999.22
2018-10-03T08:27:27.898Z,999.29
2018-10-03T08:28:27.924Z,999.28
2018-10-03T08:29:27.899Z,999.26
2018-10-03T08:30:27.891Z,999.32
2018-10-03T08:31:27.894Z,999.32
2018-10-03T08:32:27.965Z,999.35
2018-10-03T08:33:27.884Z,999.37
2018-10-03T08:34:27.884Z,999.37
2018-10-03T08:35:27.931Z,999.37
2018-10-03T08:36:27.875Z,999.43
2018-10-03T08:37:27.882Z,999.49
2018-10-03T08:38:27.886Z,999.49
2018-10-03T08:39:27.874Z,999.55
2018-10-03T08:40:27.870Z,999.57
2018-10-03T08:41:27.871Z,999.53
2018-10-03T08:42:28.035Z,999.51
2018-10-03T08:43:27.876Z,999.54
2018-10-03T08:44:27.871Z,999.54
2018-10-03T08:45:27.890Z,999.63
2018-10-03T08:46:27.857Z,999.63
2018-10-03T08:47:27.856Z,999.67
2018-10-03T08:48:27.853Z,999.65
2018-10-03T08:49:27.851Z,999.68
2018-10-03T08:50:27.847Z,999.71
2018-10-03T09:00:21.711Z,999.81
2018-10-03T09:01:21.709Z,999.8
2018-10-03T09:02:21.707Z,999.82
2018-10-03T09:03:21.706Z,999.71
2018-10-03T09:04:21.705Z,999.71
2018-10-03T09:05:21.704Z,999.67
2018-10-03T09:06:21.705Z,999.7
2018-10-03T09:07:21.703Z,999.67
2018-10-03T09:08:21.755Z,999.64
2018-10-03T09:09:21.702Z,999.62
2018-10-03T09:10:21.702Z,999.69
2018-10-03T09:11:21.700Z,999.62
2018-10-03T09:12:21.703Z,999.65
2018-10-03T09:13:21.699Z,999.64
2018-10-03T09:14:21.699Z,999.6
2018-10-03T09:15:21.700Z,999.57
2018-10-03T09:16:21.703Z,999.59
2018-10-03T09:17:21.700Z,999.59
2018-10-03T09:18:21.698Z,999.55
2018-10-03T09:19:21.703Z,999.57
2018-10-03T09:20:21.706Z,999.52
2018-10-03T09:21:21.785Z,999.56
2018-10-03T09:22:21.705Z,999.58
2018-10-03T09:23:21.701Z,999.56
2018-10-03T09:24:21.703Z,999.6
2018-10-03T09:25:21.700Z,999.62
2018-10-03T09:26:21.702Z,999.67
2018-10-03T09:27:21.715Z,999.67
2018-10-03T09:28:21.757Z,999.69
2018-10-03T09:29:21.707Z,999.68
2018-10-03T09:30:21.710Z,999.69
2018-10-03T09:31:21.710Z,999.62
2018-10-03T09:32:21.713Z,999.65
2018-10-03T09:33:21.710Z,999.68
2018-10-03T09:34:21.711Z,999.69
2018-10-03T09:35:21.709Z,999.72
2018-10-03T09:36:21.710Z,999.69
2018-10-03T09:37:21.711Z,999.69
2018-10-03T09:38:21.711Z,999.72
2018-10-03T09:39:21.769Z,999.73
2018-10-03T09:40:21.743Z,999.76
2018-10-03T09:41:21.714Z,999.77
2018-10-03T09:42:21.716Z,999.76
2018-10-03T09:43:21.716Z,999.72
2018-10-03T09:44:21.731Z,999.75
2018-10-03T09:45:21.724Z,999.76
2018-10-03T09:46:21.717Z,999.69
2018-10-03T09:47:21.723Z,999.71
2018-10-03T09:48:21.720Z,999.7
2018-10-03T09:49:21.723Z,999.67
2018-10-03T09:50:21.729Z,999.71
2018-10-03T09:51:21.724Z,999.7
2018-10-03T09:52:21.724Z,999.74
2018-10-03T09:53:21.726Z,999.7
2018-10-03T09:54:21.724Z,999.75
2018-10-03T09:55:21.730Z,999.77
2018-10-03T09:56:21.730Z,999.8
2018-10-03T09:57:21.727Z,999.8
2018-10-03T09:58:21.731Z,999.81
2018-10-03T09:59:21.741Z,999.8
2018-10-03T10:00:21.775Z,999.81
2018-10-03T10:01:21.743Z,999.84
2018-10-03T10:02:21.744Z,999.85
2018-10-03T10:03:21.750Z,999.78
2018-10-03T10:04:21.747Z,999.81
2018-10-03T10:05:21.746Z,999.79
2018-10-03T10:06:21.747Z,999.76
2018-10-03T10:07:21.748Z,999.81
2018-10-03T10:08:21.747Z,999.74
2018-10-03T10:09:21.751Z,999.77
2018-10-03T10:10:21.891Z,999.75
2018-10-03T10:11:21.775Z,999.71
2018-10-03T10:12:21.749Z,999.78
2018-10-03T10:13:21.751Z,999.71
2018-10-03T10:14:21.756Z,999.67
2018-10-03T10:15:21.752Z,999.74
2018-10-03T10:16:21.749Z,999.76
2018-10-03T10:17:21.752Z,999.75
2018-10-03T10:18:21.752Z,999.74
2018-10-03T10:19:21.753Z,999.76
2018-10-03T10:20:21.752Z,999.78
2018-10-03T10:21:21.754Z,999.83
2018-10-03T10:22:21.753Z,999.87
2018-10-03T10:23:21.753Z,999.85
2018-10-03T10:24:21.761Z,999.85
2018-10-03T10:25:21.815Z,999.91
2018-10-03T10:26:21.757Z,999.84
2018-10-03T10:27:21.756Z,999.87
2018-10-03T10:28:21.760Z,999.93
2018-10-03T10:29:21.763Z,999.94
2018-10-03T10:30:21.779Z,999.93
2018-10-03T10:31:21.761Z,999.88
2018-10-03T10:32:21.890Z,999.87
2018-10-03T10:33:21.773Z,999.89
2018-10-03T10:34:21.771Z,999.89
2018-10-03T10:35:21.767Z,999.95
2018-10-03T10:36:21.763Z,999.98
2018-10-03T10:37:21.764Z,999.94
2018-10-03T10:38:21.764Z,999.89
2018-10-03T10:39:21.767Z,999.88
2018-10-03T10:40:23.749Z,999.85
2018-10-03T10:41:21.979Z,999.85
2018-10-03T10:42:21.767Z,999.89
2018-10-03T10:43:21.805Z,999.92
2018-10-03T10:44:21.770Z,999.89
2018-10-03T10:45:21.773Z,999.91
2018-10-03T10:46:21.782Z,999.91
2018-10-03T10:47:21.779Z,999.91
2018-10-03T10:48:21.777Z,999.9
2018-10-03T10:49:21.775Z,999.86
2018-10-03T10:50:21.867Z,999.96
2018-10-03T10:51:21.777Z,999.98
2018-10-03T10:52:21.782Z,999.96
2018-10-03T10:53:21.779Z,999.98
2018-10-03T10:54:21.776Z,999.94
2018-10-03T10:55:21.775Z,999.91
2018-10-03T10:56:21.778Z,999.95
2018-10-03T10:57:21.778Z,999.98
2018-10-03T10:58:21.777Z,999.95
2018-10-03T10:59:21.797Z,1000
2018-10-03T11:00:21.787Z,999.99
2018-10-03T11:01:21.776Z,999.97
2018-10-03T11:02:21.778Z,999.93
2018-10-03T11:03:21.777Z,999.99
2018-10-03T11:04:21.780Z,999.94
2018-10-03T11:05:21.781Z,999.93
2018-10-03T11:06:21.819Z,999.97
2018-10-03T11:07:21.781Z,999.98
2018-10-03T11:08:21.795Z,1000.04
2018-10-03T11:09:21.780Z,999.97
2018-10-03T11:10:21.788Z,1000.03
2018-10-03T11:11:21.780Z,999.98
2018-10-03T11:12:21.794Z,999.99
2018-10-03T11:13:21.783Z,999.94
2018-10-03T11:14:21.789Z,1000.03
2018-10-03T11:15:21.795Z,1000.04
2018-10-03T11:16:21.788Z,1000.01
2018-10-03T11:17:21.791Z,999.99
2018-10-03T11:18:21.790Z,999.98
2018-10-03T11:19:21.788Z,999.95
2018-10-03T11:20:21.794Z,1000.03
2018-10-03T11:21:21.793Z,999.97
2018-10-03T11:22:21.792Z,999.95
2018-10-03T11:23:21.858Z,999.94
2018-10-03T11:24:21.923Z,999.93
2018-10-03T11:25:21.794Z,999.94
2018-10-03T11:26:21.814Z,999.91
2018-10-03T11:27:21.799Z,999.87
2018-10-03T11:28:21.801Z,999.88
2018-10-03T11:29:21.803Z,999.86
2018-10-03T11:30:21.801Z,999.88
2018-10-03T11:31:21.807Z,999.85
2018-10-03T11:32:21.800Z,999.79
2018-10-03T11:33:21.800Z,999.81
2018-10-03T11:34:21.804Z,999.85
2018-10-03T11:35:21.807Z,999.88
2018-10-03T11:36:21.805Z,999.88
2018-10-03T11:37:21.814Z,999.85
2018-10-03T11:38:21.892Z,999.84
2018-10-03T11:39:21.812Z,999.79
2018-10-03T11:40:21.815Z,999.8
2018-10-03T11:41:21.815Z,999.85
2018-10-03T11:42:21.816Z,999.92
2018-10-03T11:43:21.813Z,999.83
2018-10-03T11:44:21.817Z,999.83
2018-10-03T11:45:21.817Z,999.86
2018-10-03T11:46:21.833Z,999.83
2018-10-03T11:47:21.828Z,999.74
2018-10-03T11:48:21.836Z,999.82
2018-10-03T11:49:21.834Z,999.81
2018-10-03T11:50:21.822Z,999.82
2018-10-03T11:51:21.828Z,999.89
2018-10-03T11:52:21.846Z,999.91
2018-10-03T11:53:21.827Z,999.96
2018-10-03T11:54:21.826Z,999.94
2018-10-03T11:55:21.833Z,999.91
2018-10-03T11:56:21.833Z,999.91
2018-10-03T11:57:21.829Z,999.9
2018-10-03T11:58:21.832Z,999.87
2018-10-03T11:59:21.898Z,999.87
2018-10-03T12:00:21.838Z,999.88
2018-10-03T12:01:21.837Z,999.89
2018-10-03T12:02:21.838Z,999.89
2018-10-03T12:03:21.994Z,999.86
2018-10-03T12:04:21.841Z,999.82
2018-10-03T12:05:21.844Z,999.78
2018-10-03T12:06:21.861Z,999.87
2018-10-03T12:07:21.843Z,999.87
2018-10-03T12:08:21.847Z,999.91
2018-10-03T12:09:22.018Z,1000.01
2018-10-03T12:10:21.852Z,999.97
2018-10-03T12:11:22.145Z,999.96
2018-10-03T12:12:21.854Z,999.9
2018-10-03T12:13:21.856Z,999.96
2018-10-03T12:14:21.848Z,999.92
2018-10-03T12:15:21.861Z,999.88
2018-10-03T12:16:21.849Z,999.86
2018-10-03T12:17:21.863Z,999.85
2018-10-03T12:18:21.857Z,999.82
2018-10-03T12:19:21.848Z,999.86
2018-10-03T12:20:21.855Z,999.89
2018-10-03T12:21:21.853Z,999.79
2018-10-03T12:22:21.855Z,999.82
2018-10-03T12:23:21.853Z,999.83
2018-10-03T12:24:21.856Z,999.75
2018-10-03T12:25:21.929Z,999.71
2018-10-03T12:26:21.856Z,999.73
2018-10-03T12:27:21.856Z,999.72
2018-10-03T12:28:21.854Z,999.67
2018-10-03T12:29:21.864Z,999.74
2018-10-03T12:30:21.854Z,999.75
2018-10-03T12:31:21.861Z,999.75
2018-10-03T12:32:21.858Z,999.77
2018-10-03T12:33:21.924Z,999.81
2018-10-03T12:34:21.864Z,999.8
2018-10-03T12:35:21.858Z,999.79
2018-10-03T12:36:21.869Z,999.83
2018-10-03T12:37:21.859Z,999.86
2018-10-03T12:38:21.857Z,999.79
2018-10-03T12:39:21.859Z,999.79